Santa Fe, Illinois
Current Conditions -  °F | °C
As of 1:35 AM on Sunday 23 Nov 2014 (Local Time) from KENL Reporting Station
Clear Clear  
Wind Chill: 52°   Ceiling: Unl
Heat Index: 52°   Visibility: 10mi
Dew Point: 39°   Wind: 12mph
Humidity: 62%   Direction: 170°S
Pressure: 29.88"   Gusts: NA
Location:  38.5271°N, 89.4497°W
Report Text: KENL 230735Z AUTO 17010KT 10SM CLR 11/04 A2988 RMK AO2 T01100040
Loading
Personal Weather Stations






























Interactive Weather Map New forecast layout! Learn more

10-Day Weather Forecast

Advertisements
Track Severe Weather on mobile